createdAt,value
2022-12-28T00:01:18.179Z,93505.91
2022-12-28T00:03:49.090Z,93522.34
2022-12-28T00:06:19.907Z,93524.22
2022-12-28T00:08:51.305Z,93516.34
2022-12-28T00:11:26.512Z,93516.34
2022-12-28T00:14:02.966Z,93530.75
2022-12-28T00:16:34.090Z,93536.69
2022-12-28T00:19:07.751Z,93546.19
2022-12-28T00:21:37.939Z,93536.75
2022-12-28T00:24:10.505Z,93538.31
2022-12-28T00:26:40.305Z,93537.28
2022-12-28T00:29:10.231Z,93538.25
2022-12-28T00:31:40.624Z,93543.38
2022-12-28T00:34:10.563Z,93539.06
2022-12-28T00:37:08.658Z,93529.72
2022-12-28T00:39:32.132Z,93537.47
2022-12-28T00:42:01.854Z,93536.75
2022-12-28T00:44:31.672Z,93544.50
2022-12-28T00:47:01.439Z,93544.50
2022-12-28T00:50:50.400Z,93532.59
2022-12-28T00:53:20.399Z,93534.06
2022-12-28T00:55:50.143Z,93536.09
2022-12-28T00:58:19.985Z,93541.88
2022-12-28T01:00:52.079Z,93550.47
2022-12-28T01:03:21.944Z,93538.69
2022-12-28T01:05:53.275Z,93538.69
2022-12-28T01:08:23.284Z,93541.16
2022-12-28T01:10:53.507Z,93533.38
2022-12-28T01:13:23.387Z,93529.88
2022-12-28T01:15:53.172Z,93531.28
2022-12-28T01:18:22.884Z,93532.59
2022-12-28T01:20:54.305Z,93531.16
2022-12-28T01:23:24.025Z,93532.38
2022-12-28T01:25:53.806Z,93527.91
2022-12-28T01:28:23.658Z,93529.66
2022-12-28T01:30:53.532Z,93536.78
2022-12-28T01:33:23.538Z,93533.53
2022-12-28T01:35:54.826Z,93526.81
2022-12-28T01:38:24.866Z,93527.13
2022-12-28T01:40:54.761Z,93521.41
2022-12-28T01:43:43.936Z,93524.88
2022-12-28T01:46:18.376Z,93523.47
2022-12-28T01:48:56.800Z,93524.56
2022-12-28T01:51:39.306Z,93524.72
2022-12-28T01:54:09.246Z,93530.06
2022-12-28T01:56:39.796Z,93535.28
2022-12-28T01:59:09.685Z,93534.69
2022-12-28T02:01:40.346Z,93532.41
2022-12-28T02:04:12.768Z,93529.84
2022-12-28T02:06:44.155Z,93532.22
2022-12-28T02:09:21.009Z,93520.22
2022-12-28T02:11:52.638Z,93521.31
2022-12-28T02:14:24.192Z,93526.53
2022-12-28T02:16:55.207Z,93530.94
2022-12-28T02:19:38.261Z,93530.97
2022-12-28T02:22:33.842Z,93525.81
2022-12-28T02:25:58.828Z,93519.81
2022-12-28T02:29:37.064Z,93514.69
2022-12-28T02:32:31.129Z,93513.03
2022-12-28T02:35:09.424Z,93502.72
2022-12-28T02:37:46.453Z,93508.94
2022-12-28T02:40:22.084Z,93500.41
2022-12-28T02:42:53.533Z,93503.06
2022-12-28T02:45:56.131Z,93511.69
2022-12-28T02:48:52.165Z,93514.25
2022-12-28T02:51:47.223Z,93518.81
2022-12-28T02:55:12.739Z,93525.13
2022-12-28T02:58:07.325Z,93526.63
2022-12-28T03:00:58.398Z,93525.91
2022-12-28T03:03:40.552Z,93529.25
2022-12-28T03:06:35.523Z,93533.59
2022-12-28T03:09:15.744Z,93528.47
2022-12-28T03:11:52.546Z,93529.41
2022-12-28T03:14:28.697Z,93536.31
2022-12-28T03:17:20.665Z,93534.84
2022-12-28T03:20:19.748Z,93546.41
2022-12-28T03:23:07.459Z,93543.16
2022-12-28T03:26:01.196Z,93549.22
2022-12-28T03:28:50.677Z,93549.56
2022-12-28T03:31:23.796Z,93554.88
2022-12-28T03:34:07.121Z,93553.47
2022-12-28T03:36:46.597Z,93563.06
2022-12-28T03:39:28.505Z,93557.16
2022-12-28T03:42:20.587Z,93554.91
2022-12-28T03:44:56.277Z,93550.66
2022-12-28T03:47:28.543Z,93548.91
2022-12-28T03:51:51.079Z,93557.22
2022-12-28T03:54:21.614Z,93557.63
2022-12-28T03:56:54.519Z,93562.72
2022-12-28T03:59:24.001Z,93567.97
2022-12-28T04:01:54.082Z,93576.69
2022-12-28T04:04:23.980Z,93572.53
2022-12-28T04:06:55.277Z,93579.34
2022-12-28T04:09:25.338Z,93577.78
2022-12-28T04:11:55.198Z,93586.53
2022-12-28T04:14:24.971Z,93584.91
2022-12-28T04:16:54.819Z,93585.78
2022-12-28T04:19:24.625Z,93585.06
2022-12-28T04:21:55.967Z,93589.50
2022-12-28T04:24:26.419Z,93576.59
2022-12-28T04:26:58.406Z,93580.16
2022-12-28T04:29:28.213Z,93581.09
2022-12-28T04:31:58.109Z,93581.22
2022-12-28T04:34:27.879Z,93579.66
2022-12-28T04:36:59.518Z,93580.69
2022-12-28T04:39:55.585Z,93590.25
2022-12-28T04:42:19.418Z,93587.72
2022-12-28T04:44:49.285Z,93584.41
2022-12-28T04:47:20.422Z,93593.94
2022-12-28T04:49:50.767Z,93585.31
2022-12-28T04:52:22.681Z,93592.44
2022-12-28T04:54:52.877Z,93596.88
2022-12-28T04:57:22.671Z,93597.75
2022-12-28T04:59:52.439Z,93590.47
2022-12-28T05:02:22.333Z,93589.50
2022-12-28T05:04:52.349Z,93597.50
2022-12-28T05:07:23.765Z,93589.47
2022-12-28T05:09:53.518Z,93593.09
2022-12-28T05:12:23.432Z,93578.50
2022-12-28T05:14:53.981Z,93579.94
2022-12-28T05:17:23.835Z,93572.91
2022-12-28T05:19:53.645Z,93575.59
2022-12-28T05:22:25.006Z,93574.78
2022-12-28T05:24:54.987Z,93579.06
2022-12-28T05:27:24.844Z,93579.78
2022-12-28T05:29:54.751Z,93583.16
2022-12-28T05:32:24.650Z,93577.91
2022-12-28T05:34:54.679Z,93586.31
2022-12-28T05:37:26.048Z,93578.44
2022-12-28T05:39:55.948Z,93584.38
2022-12-28T05:42:26.071Z,93588.69
2022-12-28T05:44:55.939Z,93593.00
2022-12-28T05:47:27.402Z,93605.88
2022-12-28T05:49:57.225Z,93608.47
2022-12-28T05:52:30.539Z,93605.16
2022-12-28T05:55:00.396Z,93607.81
2022-12-28T05:57:30.385Z,93607.69
2022-12-28T06:00:01.609Z,93614.59
2022-12-28T06:02:31.577Z,93624.22
2022-12-28T06:05:01.648Z,93625.91
2022-12-28T06:07:32.968Z,93619.69
2022-12-28T06:10:02.921Z,93629.78
2022-12-28T06:12:32.627Z,93628.97
2022-12-28T06:15:02.926Z,93633.34
2022-12-28T06:17:32.807Z,93643.69
2022-12-28T06:20:02.681Z,93642.81
2022-12-28T06:22:34.019Z,93646.13
2022-12-28T06:25:03.822Z,93653.00
2022-12-28T06:27:33.786Z,93645.34
2022-12-28T06:30:03.644Z,93644.50
2022-12-28T06:32:33.464Z,93630.59
2022-12-28T06:35:04.107Z,93632.06
2022-12-28T06:37:35.640Z,93639.78
2022-12-28T06:40:05.816Z,93637.09
2022-12-28T06:42:35.828Z,93642.09
2022-12-28T06:45:06.160Z,93645.34
2022-12-28T06:47:37.419Z,93641.81
2022-12-28T06:51:53.159Z,93630.28
2022-12-28T06:54:23.059Z,93633.53
2022-12-28T06:56:53.850Z,93634.31
2022-12-28T06:59:23.768Z,93638.53
2022-12-28T07:01:53.775Z,93641.84
2022-12-28T07:04:23.889Z,93640.84
2022-12-28T07:06:55.185Z,93645.69
2022-12-28T07:09:25.043Z,93648.66
2022-12-28T07:11:55.014Z,93655.25
2022-12-28T07:14:25.206Z,93653.31
2022-12-28T07:16:55.039Z,93652.16
2022-12-28T07:19:24.788Z,93648.13
2022-12-28T07:21:56.045Z,93663.25
2022-12-28T07:24:25.857Z,93662.59
2022-12-28T07:26:55.802Z,93668.06
2022-12-28T07:29:25.657Z,93668.22
2022-12-28T07:31:55.484Z,93669.25
2022-12-28T07:34:25.341Z,93670.31
2022-12-28T07:36:56.688Z,93673.31
2022-12-28T07:39:26.527Z,93670.34
2022-12-28T07:41:56.390Z,93681.44
2022-12-28T07:44:29.547Z,93680.41
2022-12-28T07:47:00.115Z,93679.41
2022-12-28T07:49:30.059Z,93674.00
2022-12-28T07:52:01.538Z,93683.31
2022-12-28T07:54:31.486Z,93690.81
2022-12-28T07:57:01.789Z,93697.63
2022-12-28T07:59:31.799Z,93710.41
2022-12-28T08:02:01.975Z,93720.75
2022-12-28T08:04:32.038Z,93720.66
2022-12-28T08:07:03.336Z,93718.78
2022-12-28T08:09:33.233Z,93715.16
2022-12-28T08:12:03.743Z,93714.19
2022-12-28T08:14:33.677Z,93709.66
2022-12-28T08:17:03.583Z,93715.53
2022-12-28T08:19:33.420Z,93717.16
2022-12-28T08:22:04.581Z,93724.84
2022-12-28T08:24:35.923Z,93729.00
2022-12-28T08:27:05.784Z,93714.25
2022-12-28T08:29:35.838Z,93727.03
2022-12-28T08:32:06.021Z,93727.56
2022-12-28T08:34:35.899Z,93730.94
2022-12-28T08:37:07.332Z,93730.88
2022-12-28T08:39:37.285Z,93740.41
2022-12-28T08:42:07.324Z,93734.38
2022-12-28T08:44:37.260Z,93745.59
2022-12-28T08:47:07.300Z,93740.41
2022-12-28T08:49:37.146Z,93742.03
2022-12-28T08:52:08.642Z,93746.34
2022-12-28T08:54:38.944Z,93744.63
2022-12-28T08:57:08.786Z,93746.28
2022-12-28T08:59:38.703Z,93741.94
2022-12-28T09:02:08.792Z,93742.78
2022-12-28T09:04:38.560Z,93742.78
2022-12-28T09:07:10.186Z,93745.47
2022-12-28T09:09:39.984Z,93751.53
2022-12-28T09:12:10.002Z,93747.25
2022-12-28T09:14:39.725Z,93737.72
2022-12-28T09:17:09.725Z,93745.47
2022-12-28T09:19:39.629Z,93747.13
2022-12-28T09:22:11.065Z,93740.13
2022-12-28T09:24:40.924Z,93740.91
2022-12-28T09:27:10.784Z,93740.78
2022-12-28T09:29:40.718Z,93741.41
2022-12-28T09:32:10.612Z,93735.31
2022-12-28T09:34:40.496Z,93729.09
2022-12-28T09:37:11.799Z,93726.06
2022-12-28T09:39:41.808Z,93723.97
2022-12-28T09:42:19.207Z,93725.59
2022-12-28T09:44:57.101Z,93725.53
2022-12-28T09:47:39.356Z,93723.69
2022-12-28T09:51:59.309Z,93713.25
2022-12-28T09:54:29.979Z,93715.91
2022-12-28T09:57:00.444Z,93715.00
2022-12-28T09:59:35.657Z,93709.63
2022-12-28T10:02:11.776Z,93709.44
2022-12-28T10:04:47.285Z,93706.81
2022-12-28T10:07:21.217Z,93704.25
2022-12-28T10:09:51.402Z,93710.31
2022-12-28T10:12:24.984Z,93715.50
2022-12-28T10:14:56.698Z,93716.41
2022-12-28T10:17:31.361Z,93713.88
2022-12-28T10:20:02.207Z,93719.16
2022-12-28T10:22:47.983Z,93712.25
2022-12-28T10:25:23.198Z,93711.50
2022-12-28T10:27:53.858Z,93706.44
2022-12-28T10:30:27.471Z,93714.09
2022-12-28T10:33:03.102Z,93717.44
2022-12-28T10:35:39.762Z,93716.56
2022-12-28T10:38:24.820Z,93714.94
2022-12-28T10:41:03.902Z,93709.81
2022-12-28T10:43:37.470Z,93706.31
2022-12-28T10:46:15.508Z,93717.53
2022-12-28T10:48:50.016Z,93711.50
2022-12-28T10:51:25.606Z,93711.59
2022-12-28T10:53:58.633Z,93710.03
2022-12-28T10:56:31.133Z,93709.38
2022-12-28T10:59:26.216Z,93698.88
2022-12-28T11:01:57.502Z,93707.50
2022-12-28T11:04:28.779Z,93698.25
2022-12-28T11:07:01.005Z,93697.41
2022-12-28T11:09:35.562Z,93699.22
2022-12-28T11:12:23.995Z,93693.97
2022-12-28T11:14:54.662Z,93694.72
2022-12-28T11:17:27.315Z,93687.09
2022-12-28T11:20:03.285Z,93686.19
2022-12-28T11:22:33.423Z,93685.19
2022-12-28T11:25:06.059Z,93685.06
2022-12-28T11:27:37.666Z,93681.63
2022-12-28T11:30:17.473Z,93681.72
2022-12-28T11:32:54.779Z,93684.56
2022-12-28T11:35:28.787Z,93679.59
2022-12-28T11:38:00.785Z,93676.28
2022-12-28T11:40:54.481Z,93678.34
2022-12-28T11:43:54.330Z,93678.59
2022-12-28T11:46:45.322Z,93682.13
2022-12-28T11:49:36.535Z,93685.47
2022-12-28T11:52:49.717Z,93689.75
2022-12-28T11:56:06.558Z,93691.22
2022-12-28T11:59:22.345Z,93680.94
2022-12-28T12:01:58.171Z,93681.63
2022-12-28T12:04:46.550Z,93685.00
2022-12-28T12:07:31.657Z,93687.72
2022-12-28T12:10:39.327Z,93670.47
2022-12-28T12:13:52.739Z,93669.50
2022-12-28T12:16:30.866Z,93669.34
2022-12-28T12:19:03.420Z,93667.47
2022-12-28T12:21:37.777Z,93669.22
2022-12-28T12:24:27.145Z,93670.06
2022-12-28T12:27:07.285Z,93658.84
2022-12-28T12:29:46.443Z,93658.00
2022-12-28T12:32:23.398Z,93660.69
2022-12-28T12:34:56.483Z,93655.63
2022-12-28T12:37:45.217Z,93663.53
2022-12-28T12:40:52.186Z,93658.44
2022-12-28T12:43:37.676Z,93656.59
2022-12-28T12:46:42.621Z,93658.28
2022-12-28T12:51:59.112Z,93662.50
2022-12-28T12:54:47.049Z,93669.31
2022-12-28T12:57:22.433Z,93665.00
2022-12-28T13:00:07.318Z,93650.38
2022-12-28T13:03:16.659Z,93652.13
2022-12-28T13:05:54.709Z,93657.44
2022-12-28T13:08:30.011Z,93647.91
2022-12-28T13:11:00.137Z,93647.06
2022-12-28T13:13:36.262Z,93648.78
2022-12-28T13:16:11.524Z,93647.84
2022-12-28T13:18:45.758Z,93651.38
2022-12-28T13:21:22.756Z,93649.44
2022-12-28T13:23:54.768Z,93640.69
2022-12-28T13:26:30.414Z,93645.03
2022-12-28T13:29:03.061Z,93645.97
2022-12-28T13:31:37.363Z,93637.25
2022-12-28T13:34:17.765Z,93643.38
2022-12-28T13:36:54.047Z,93641.66
2022-12-28T13:39:27.164Z,93633.97
2022-12-28T13:42:00.304Z,93640.00
2022-12-28T13:44:43.705Z,93642.72
2022-12-28T13:47:23.907Z,93634.94
2022-12-28T13:50:00.839Z,93626.41
2022-12-28T13:52:34.917Z,93637.69
2022-12-28T13:55:11.878Z,93630.88
2022-12-28T13:57:47.535Z,93634.38
2022-12-28T14:00:20.973Z,93635.22
2022-12-28T14:02:53.508Z,93642.25
2022-12-28T14:05:27.675Z,93643.22
2022-12-28T14:07:59.615Z,93646.84
2022-12-28T14:10:31.625Z,93639.09
2022-12-28T14:13:02.039Z,93636.50
2022-12-28T14:15:38.943Z,93633.06
2022-12-28T14:18:15.557Z,93628.84
2022-12-28T14:20:53.503Z,93633.19
2022-12-28T14:23:27.256Z,93637.63
2022-12-28T14:26:01.741Z,93637.75
2022-12-28T14:28:38.398Z,93630.19
2022-12-28T14:31:10.314Z,93636.31
2022-12-28T14:33:58.957Z,93630.38
2022-12-28T14:36:34.309Z,93634.66
2022-12-28T14:39:06.598Z,93626.03
2022-12-28T14:41:43.061Z,93634.31
2022-12-28T14:44:19.279Z,93629.66
2022-12-28T14:46:52.695Z,93627.31
2022-12-28T14:49:44.565Z,93622.50
2022-12-28T14:52:38.663Z,93635.69
2022-12-28T14:55:41.563Z,93634.22
2022-12-28T14:58:23.027Z,93636.50
2022-12-28T15:01:00.416Z,93642.00
2022-12-28T15:03:31.113Z,93633.38
2022-12-28T15:06:03.096Z,93638.22
2022-12-28T15:08:32.863Z,93636.97
2022-12-28T15:13:36.025Z,93647.84
2022-12-28T15:16:07.154Z,93653.16
2022-12-28T15:18:37.939Z,93653.16
2022-12-28T15:21:08.479Z,93651.53
2022-12-28T15:23:38.558Z,93655.88
2022-12-28T15:26:12.059Z,93652.34
2022-12-28T15:28:43.605Z,93654.00
2022-12-28T15:31:15.924Z,93661.03
2022-12-28T15:33:45.992Z,93669.81
2022-12-28T15:36:19.393Z,93669.88
2022-12-28T15:38:50.667Z,93660.50
2022-12-28T15:41:38.326Z,93663.88
2022-12-28T15:44:09.994Z,93668.97
2022-12-28T15:46:40.000Z,93665.56
2022-12-28T15:51:50.327Z,93676.00
2022-12-28T15:54:20.329Z,93676.09
2022-12-28T15:56:55.821Z,93671.78
2022-12-28T15:59:26.919Z,93663.19
2022-12-28T16:01:57.173Z,93664.19
2022-12-28T16:04:27.160Z,93667.66
2022-12-28T16:06:58.500Z,93666.03
2022-12-28T16:09:28.257Z,93665.38
2022-12-28T16:11:58.274Z,93665.56
2022-12-28T16:14:28.163Z,93676.00
2022-12-28T16:16:58.141Z,93672.69
2022-12-28T16:19:27.901Z,93681.34
2022-12-28T16:21:59.334Z,93670.34
2022-12-28T16:24:29.355Z,93673.94
2022-12-28T16:26:59.338Z,93662.94
2022-12-28T16:29:29.279Z,93673.31
2022-12-28T16:32:02.054Z,93669.22
2022-12-28T16:34:32.065Z,93676.41
2022-12-28T16:37:03.609Z,93681.75
2022-12-28T16:39:33.790Z,93682.81
2022-12-28T16:42:03.678Z,93686.34
2022-12-28T16:44:34.365Z,93686.56
2022-12-28T16:47:04.373Z,93690.09
2022-12-28T16:49:34.287Z,93682.50
2022-12-28T16:52:05.936Z,93676.59
2022-12-28T16:54:36.190Z,93675.09
2022-12-28T16:57:06.013Z,93670.09
2022-12-28T16:59:35.856Z,93680.59
2022-12-28T17:02:05.938Z,93683.69
2022-12-28T17:04:36.258Z,93686.69
2022-12-28T17:07:07.605Z,93685.16
2022-12-28T17:09:37.885Z,93682.66
2022-12-28T17:12:08.480Z,93671.56
2022-12-28T17:14:38.445Z,93681.97
2022-12-28T17:17:08.967Z,93693.41
2022-12-28T17:19:38.840Z,93695.19
2022-12-28T17:22:10.322Z,93696.09
2022-12-28T17:24:40.520Z,93696.34
2022-12-28T17:27:15.559Z,93690.41
2022-12-28T17:29:48.783Z,93695.59
2022-12-28T17:32:19.145Z,93687.81
2022-12-28T17:34:49.360Z,93686.09
2022-12-28T17:37:20.600Z,93685.25
2022-12-28T17:39:50.493Z,93676.75
2022-12-28T17:42:20.435Z,93688.81
2022-12-28T17:44:50.490Z,93701.41
2022-12-28T17:47:20.417Z,93709.03
2022-12-28T17:49:50.306Z,93704.78
2022-12-28T17:52:23.843Z,93714.81
2022-12-28T17:54:53.976Z,93707.91
2022-12-28T17:57:23.880Z,93695.94
2022-12-28T17:59:53.792Z,93696.06
2022-12-28T18:02:24.209Z,93700.19
2022-12-28T18:04:54.397Z,93700.25
2022-12-28T18:07:25.817Z,93703.06
2022-12-28T18:09:55.803Z,93699.75
2022-12-28T18:12:25.700Z,93701.59
2022-12-28T18:14:55.577Z,93700.81
2022-12-28T18:17:25.510Z,93711.63
2022-12-28T18:19:56.308Z,93701.59
2022-12-28T18:22:27.725Z,93703.53
2022-12-28T18:24:57.563Z,93707.00
2022-12-28T18:27:27.332Z,93708.75
2022-12-28T18:29:57.205Z,93716.00
2022-12-28T18:32:27.834Z,93715.13
2022-12-28T18:34:57.777Z,93706.53
2022-12-28T18:37:29.600Z,93705.81
2022-12-28T18:39:59.396Z,93710.97
2022-12-28T18:42:29.251Z,93707.41
2022-12-28T18:44:59.487Z,93714.19
2022-12-28T18:47:33.174Z,93706.53
2022-12-28T18:51:50.085Z,93711.66
2022-12-28T18:54:19.858Z,93713.28
2022-12-28T18:56:49.758Z,93716.06
2022-12-28T18:59:19.593Z,93718.00
2022-12-28T19:02:06.450Z,93712.97
2022-12-28T19:04:37.276Z,93710.28
2022-12-28T19:07:08.742Z,93714.63
2022-12-28T19:09:38.875Z,93718.03
2022-12-28T19:12:08.884Z,93721.38
2022-12-28T19:14:38.799Z,93717.84
2022-12-28T19:17:08.558Z,93709.38
2022-12-28T19:19:38.881Z,93712.72
2022-12-28T19:22:10.196Z,93710.84
2022-12-28T19:24:40.086Z,93708.19
2022-12-28T19:27:10.072Z,93707.28
2022-12-28T19:29:40.047Z,93711.47
2022-12-28T19:32:09.956Z,93709.66
2022-12-28T19:34:39.839Z,93719.91
2022-12-28T19:37:11.227Z,93719.41
2022-12-28T19:39:41.111Z,93713.53
2022-12-28T19:42:10.878Z,93716.75
2022-12-28T19:44:41.185Z,93710.59
2022-12-28T19:47:11.022Z,93715.53
2022-12-28T19:49:40.911Z,93720.41
2022-12-28T19:52:12.257Z,93717.88
2022-12-28T19:54:42.177Z,93717.00
2022-12-28T19:57:12.959Z,93716.91
2022-12-28T19:59:42.928Z,93720.19
2022-12-28T20:02:14.296Z,93714.00
2022-12-28T20:04:44.143Z,93719.91
2022-12-28T20:07:15.444Z,93708.72
2022-12-28T20:09:45.550Z,93709.66
2022-12-28T20:12:15.398Z,93713.88
2022-12-28T20:14:46.989Z,93714.59
2022-12-28T20:17:17.199Z,93714.56
2022-12-28T20:19:47.023Z,93711.00
2022-12-28T20:22:18.485Z,93703.19
2022-12-28T20:24:48.290Z,93711.59
2022-12-28T20:27:18.207Z,93704.72
2022-12-28T20:29:48.472Z,93706.59
2022-12-28T20:32:18.450Z,93711.06
2022-12-28T20:34:48.347Z,93715.38
2022-12-28T20:37:19.870Z,93718.66
2022-12-28T20:39:49.885Z,93718.38
2022-12-28T20:42:36.563Z,93709.66
2022-12-28T20:45:07.183Z,93709.50
2022-12-28T20:47:37.027Z,93703.31
2022-12-28T20:50:08.204Z,93714.44
2022-12-28T20:52:39.499Z,93706.72
2022-12-28T20:55:10.282Z,93699.00
2022-12-28T20:57:40.287Z,93703.22
2022-12-28T21:00:12.462Z,93697.97
2022-12-28T21:02:42.954Z,93703.00
2022-12-28T21:05:13.350Z,93700.34
2022-12-28T21:07:44.662Z,93700.97
2022-12-28T21:10:14.644Z,93697.47
2022-12-28T21:12:44.798Z,93700.00
2022-12-28T21:15:14.897Z,93701.69
2022-12-28T21:17:44.845Z,93700.81
2022-12-28T21:20:14.936Z,93700.81
2022-12-28T21:22:46.257Z,93702.63
2022-12-28T21:25:16.186Z,93708.78
2022-12-28T21:27:45.986Z,93704.66
2022-12-28T21:30:16.243Z,93702.94
2022-12-28T21:32:49.805Z,93707.94
2022-12-28T21:35:19.408Z,93704.28
2022-12-28T21:37:50.738Z,93698.22
2022-12-28T21:40:20.739Z,93687.81
2022-12-28T21:42:50.445Z,93692.75
2022-12-28T21:45:20.416Z,93685.78
2022-12-28T21:47:50.273Z,93687.44
2022-12-28T21:51:50.486Z,93695.94
2022-12-28T21:54:22.877Z,93690.78
2022-12-28T21:56:55.066Z,93689.84
2022-12-28T21:59:26.986Z,93688.94
2022-12-28T22:02:14.403Z,93695.72
2022-12-28T22:05:16.984Z,93688.72
2022-12-28T22:07:48.726Z,93686.06
2022-12-28T22:10:36.067Z,93681.72
2022-12-28T22:13:05.858Z,93680.84
2022-12-28T22:15:54.338Z,93684.16
2022-12-28T22:21:16.551Z,93675.56
2022-12-28T22:23:48.040Z,93667.91
2022-12-28T22:26:17.904Z,93671.31
2022-12-28T22:28:47.938Z,93669.50
2022-12-28T22:31:18.155Z,93660.03
2022-12-28T22:33:48.075Z,93663.34
2022-12-28T22:36:20.143Z,93654.84
2022-12-28T22:38:51.722Z,93657.41
2022-12-28T22:41:21.745Z,93650.44
2022-12-28T22:43:52.695Z,93653.84
2022-12-28T22:46:23.766Z,93656.34
2022-12-28T22:48:53.708Z,93659.69
2022-12-28T22:51:23.675Z,93660.44
2022-12-28T22:53:55.065Z,93656.19
2022-12-28T22:56:25.039Z,93648.38
2022-12-28T22:58:54.758Z,93651.81
2022-12-28T23:01:24.703Z,93647.63
2022-12-28T23:03:54.641Z,93646.72
2022-12-28T23:06:24.399Z,93646.66
2022-12-28T23:08:55.866Z,93643.06
2022-12-28T23:11:38.460Z,93639.53
2022-12-28T23:14:29.660Z,93639.47
2022-12-28T23:16:59.853Z,93631.69
2022-12-28T23:19:47.218Z,93629.97
2022-12-28T23:22:36.727Z,93629.06
2022-12-28T23:25:27.521Z,93628.16
2022-12-28T23:27:57.281Z,93627.28
2022-12-28T23:30:27.220Z,93622.94
2022-12-28T23:32:57.867Z,93618.63
2022-12-28T23:35:28.835Z,93616.78
2022-12-28T23:37:58.792Z,93604.72
2022-12-28T23:40:30.765Z,93608.19
2022-12-28T23:43:00.616Z,93609.88
2022-12-28T23:45:30.479Z,93599.47
2022-12-28T23:48:00.361Z,93605.38
2022-12-28T23:50:30.303Z,93610.47
2022-12-28T23:53:00.259Z,93612.19
2022-12-28T23:55:31.669Z,93614.75
2022-12-28T23:58:01.496Z,93610.47
